Strona główna
METAR-TAF:

METAR-TAF

Lotnisko :

Port lotniczy Szarura

Szarura, Arabia Saudyjska

Szerokość geograficzna: 17-28N, Długość geograficzna: 047-07E, wysokość: 720 m

Aktualna obserwacja pogody

Raport powstał 28 minut temu, godzina 22:00 UTC
Wiatr 7 kt od wschód
Temperatura 33°C
Wilgotność 20%
Ciśnienie 1009 hPa
Widzialność 10 km lub więcej
Brak chmur poniżej 1500 m i brak chmur cumulonimbus

METAR: OESH 302200Z 09007KT CAVOK 33/07 Q1009 NOSIG

czas: 01:28 (22:28 UTC)

Prognoza

Raport powstał 11 godziny i 28 minut temu, godzina 11:00 UTC
Prognoza ważna od 30 godzina 12 UTC do 31 godzina 18 UTC
Wiatr 15 kt od północny wschód
Widzialność: 6000 m
Rozproszone chmury na wysokości 4000 ft
Przejściowo
od 30 godzina 12 UTC do 30 godzina 18 UTC
Widzialność: 3500 m
zawieja pyłowa
Stopniowe zmiany
od 30 godzina 18 UTC do 30 godzina 20 UTC
Wiatr 6 kt od wschód

TAF: OESH 301100Z 3012/3118 04015KT 6000 SCT040 TEMPO 3012/3018 3500 BLDU BECMG 3018/3020 09006KT

Obserwacja i prognoza pogody dla ponad 4000 lotnisk (raport METAR i TAF).

Dostępne stacje oznaczono żółtymi i czerwonymi punktami na mapie.

Najedź kursorem aby zobaczyć nazwę stacji.

Kliknij aby zobaczyć obserwacje i prognozy pogody.

Aby zmienić mapę: kliknij na zielony przycisk z czarnym krzyżykiem, aby powiększyć; na zielony przycisk z myślnikiem, aby pomniejszyć; na zielone strzałki, aby przejść do map sąsiednich.


METAR-TAF: